createdAt,value
2018-11-03T00:02:05.734Z,10.85
2018-11-03T00:04:35.723Z,11.38
2018-11-03T00:07:06.227Z,11.28
2018-11-03T00:09:35.994Z,10.50
2018-11-03T00:12:05.898Z,10.90
2018-11-03T00:14:35.707Z,11.15
2018-11-03T00:17:05.826Z,10.55
2018-11-03T00:19:35.683Z,10.60
2018-11-03T00:22:05.610Z,11.10
2018-11-03T00:24:35.583Z,10.85
2018-11-03T00:27:05.591Z,11.80
2018-11-03T00:29:35.415Z,12.10
2018-11-03T00:32:05.539Z,11.85
2018-11-03T00:34:35.311Z,11.90
2018-11-03T00:37:05.151Z,11.03
2018-11-03T00:39:34.903Z,10.10
2018-11-03T00:42:04.847Z,10.82
2018-11-03T00:44:34.848Z,10.85
2018-11-03T00:47:04.806Z,11.25
2018-11-03T00:49:34.559Z,9.78
2018-11-03T00:52:04.321Z,9.88
2018-11-03T00:54:34.168Z,10.65
2018-11-03T00:57:04.055Z,11.57
2018-11-03T00:59:33.817Z,10.28
2018-11-03T01:02:04.209Z,11.25
2018-11-03T01:04:34.023Z,11.70
2018-11-03T01:07:03.802Z,9.53
2018-11-03T01:09:33.574Z,10.00
2018-11-03T01:12:03.383Z,10.18
2018-11-03T01:14:33.183Z,11.38
2018-11-03T01:17:02.967Z,13.15
2018-11-03T01:19:32.717Z,15.70
2018-11-03T01:22:02.443Z,19.50
2018-11-03T01:24:32.172Z,16.70
2018-11-03T01:27:02.140Z,11.40
2018-11-03T01:29:31.900Z,14.58
2018-11-03T01:32:01.827Z,11.03
2018-11-03T01:34:31.555Z,11.60
2018-11-03T01:37:01.250Z,11.33
2018-11-03T01:39:31.008Z,10.63
2018-11-03T01:42:00.711Z,11.40
2018-11-03T01:44:30.463Z,9.70
2018-11-03T01:47:00.172Z,9.90
2018-11-03T01:49:29.886Z,10.00
2018-11-03T01:51:59.588Z,11.55
2018-11-03T01:54:29.343Z,11.18
2018-11-03T01:56:59.038Z,10.68
2018-11-03T01:59:28.771Z,11.50
2018-11-03T02:01:58.478Z,10.93
2018-11-03T02:04:28.213Z,11.75
2018-11-03T02:06:57.992Z,11.85
2018-11-03T02:09:27.827Z,11.20
2018-11-03T02:11:57.579Z,11.85
2018-11-03T02:14:27.376Z,12.68
2018-11-03T02:16:57.499Z,11.35
2018-11-03T02:19:28.271Z,9.43
2018-11-03T02:21:58.116Z,11.12
2018-11-03T02:24:28.208Z,8.33
2018-11-03T02:26:57.962Z,9.85
2018-11-03T02:29:27.724Z,10.15
2018-11-03T02:31:57.498Z,8.38
2018-11-03T02:34:27.284Z,8.65
2018-11-03T02:36:57.049Z,9.00
2018-11-03T02:39:26.827Z,8.70
2018-11-03T02:41:56.588Z,10.18
2018-11-03T02:44:26.384Z,10.98
2018-11-03T02:46:56.155Z,11.30
2018-11-03T02:49:25.983Z,11.65
2018-11-03T02:51:55.771Z,10.58
2018-11-03T02:54:25.555Z,10.45
2018-11-03T02:56:55.327Z,9.23
2018-11-03T02:59:25.132Z,10.10
2018-11-03T03:01:54.939Z,10.30
2018-11-03T03:04:24.899Z,8.73
2018-11-03T03:06:54.704Z,10.72
2018-11-03T03:09:24.454Z,10.03
2018-11-03T03:11:54.231Z,10.85
2018-11-03T03:14:23.986Z,10.72
2018-11-03T03:16:53.990Z,13.48
2018-11-03T03:19:23.768Z,9.83
2018-11-03T03:21:53.541Z,9.23
2018-11-03T03:24:23.316Z,10.72
2018-11-03T03:26:53.099Z,11.12
2018-11-03T03:29:22.881Z,9.55
2018-11-03T03:31:52.836Z,8.90
2018-11-03T03:34:22.612Z,9.10
2018-11-03T03:36:52.441Z,10.45
2018-11-03T03:39:22.239Z,10.72
2018-11-03T03:41:52.240Z,10.05
2018-11-03T03:44:21.988Z,9.75
2018-11-03T03:46:51.822Z,10.53
2018-11-03T03:49:21.580Z,9.80
2018-11-03T03:51:51.611Z,11.22
2018-11-03T03:54:21.446Z,9.40
2018-11-03T03:56:51.212Z,9.83
2018-11-03T03:59:20.954Z,9.00
2018-11-03T04:01:50.966Z,11.45
2018-11-03T04:04:20.703Z,9.65
2018-11-03T04:06:50.739Z,10.30
2018-11-03T04:09:20.484Z,10.10
2018-11-03T04:11:50.278Z,10.23
2018-11-03T04:14:20.087Z,10.80
2018-11-03T04:16:50.046Z,11.22
2018-11-03T04:19:19.995Z,10.15
2018-11-03T04:21:49.775Z,10.90
2018-11-03T04:24:19.564Z,9.38
2018-11-03T04:26:49.342Z,9.80
2018-11-03T04:29:19.120Z,8.78
2018-11-03T04:31:49.076Z,11.33
2018-11-03T04:34:18.880Z,11.65
2018-11-03T04:36:48.652Z,10.05
2018-11-03T04:39:18.402Z,10.03
2018-11-03T04:41:48.206Z,9.68
2018-11-03T04:44:17.960Z,9.38
2018-11-03T04:46:47.728Z,8.88
2018-11-03T04:49:17.467Z,9.90
2018-11-03T04:51:47.363Z,10.05
2018-11-03T04:54:17.143Z,10.58
2018-11-03T04:56:46.944Z,11.12
2018-11-03T04:59:16.750Z,13.08
2018-11-03T05:01:46.556Z,10.25
2018-11-03T05:04:16.340Z,14.00
2018-11-03T05:06:46.166Z,14.85
2018-11-03T05:09:15.939Z,11.65
2018-11-03T05:11:45.727Z,13.00
2018-11-03T05:14:15.667Z,12.88
2018-11-03T05:16:45.689Z,13.50
2018-11-03T05:19:15.455Z,15.78
2018-11-03T05:21:45.267Z,14.28
2018-11-03T05:24:15.070Z,11.00
2018-11-03T05:26:44.903Z,13.58
2018-11-03T05:29:14.684Z,12.33
2018-11-03T05:31:44.485Z,14.20
2018-11-03T05:34:14.446Z,15.38
2018-11-03T05:36:44.228Z,12.58
2018-11-03T05:39:13.992Z,14.25
2018-11-03T05:41:43.959Z,15.15
2018-11-03T05:44:13.872Z,14.40
2018-11-03T05:46:43.759Z,13.65
2018-11-03T05:49:13.980Z,12.30
2018-11-03T05:51:43.798Z,13.00
2018-11-03T05:54:13.562Z,13.05
2018-11-03T05:56:43.395Z,13.08
2018-11-03T05:59:13.351Z,11.83
2018-11-03T06:01:43.180Z,14.07
2018-11-03T06:04:12.977Z,18.02
2018-11-03T06:06:42.792Z,12.18
2018-11-03T06:09:12.799Z,12.98
2018-11-03T06:11:42.583Z,11.35
2018-11-03T06:14:12.376Z,14.18
2018-11-03T06:16:42.140Z,10.55
2018-11-03T06:19:11.944Z,11.63
2018-11-03T06:21:41.727Z,14.40
2018-11-03T06:24:11.524Z,11.45
2018-11-03T06:26:41.375Z,14.13
2018-11-03T06:29:11.327Z,11.90
2018-11-03T06:31:42.854Z,14.55
2018-11-03T06:34:12.649Z,13.05
2018-11-03T06:36:42.464Z,15.60
2018-11-03T06:39:12.239Z,16.52
2018-11-03T06:41:42.031Z,12.45
2018-11-03T06:44:11.840Z,15.25
2018-11-03T06:46:41.725Z,13.72
2018-11-03T06:49:16.916Z,12.35
2018-11-03T06:51:46.707Z,15.65
2018-11-03T06:54:16.512Z,17.45
2018-11-03T06:56:46.315Z,12.45
2018-11-03T06:59:16.741Z,14.45
2018-11-03T07:01:46.724Z,18.30
2018-11-03T07:04:16.499Z,13.90
2018-11-03T07:06:46.683Z,16.60
2018-11-03T07:09:16.572Z,15.65
2018-11-03T07:11:46.379Z,12.90
2018-11-03T07:14:16.359Z,17.00
2018-11-03T07:16:46.091Z,15.53
2018-11-03T07:19:15.843Z,17.42
2018-11-03T07:21:45.709Z,14.98
2018-11-03T07:24:15.536Z,13.58
2018-11-03T07:26:45.246Z,10.60
2018-11-03T07:29:14.999Z,14.55
2018-11-03T07:31:44.770Z,14.65
2018-11-03T07:34:14.508Z,14.58
2018-11-03T07:36:44.242Z,15.30
2018-11-03T07:39:14.097Z,14.58
2018-11-03T07:41:43.926Z,14.15
2018-11-03T07:44:13.805Z,14.55
2018-11-03T07:46:43.533Z,13.93
2018-11-03T07:49:16.496Z,12.85
2018-11-03T07:51:47.663Z,14.90
2018-11-03T07:54:17.636Z,12.58
2018-11-03T07:56:52.926Z,14.28
2018-11-03T07:59:28.240Z,17.73
2018-11-03T08:01:57.983Z,14.07
2018-11-03T08:04:27.739Z,12.80
2018-11-03T08:06:57.534Z,14.60
2018-11-03T08:09:27.353Z,13.95
2018-11-03T08:11:57.334Z,14.73
2018-11-03T08:14:27.185Z,13.15
2018-11-03T08:16:57.162Z,13.93
2018-11-03T08:19:26.966Z,12.40
2018-11-03T08:21:56.768Z,12.15
2018-11-03T08:24:26.551Z,13.62
2018-11-03T08:26:56.316Z,14.90
2018-11-03T08:29:26.113Z,13.10
2018-11-03T08:31:55.883Z,13.25
2018-11-03T08:34:25.687Z,12.90
2018-11-03T08:36:55.480Z,10.25
2018-11-03T08:39:25.390Z,12.98
2018-11-03T08:41:55.288Z,12.40
2018-11-03T08:44:25.089Z,11.40
2018-11-03T08:46:54.879Z,11.30
2018-11-03T08:49:24.660Z,10.55
2018-11-03T08:51:54.424Z,10.82
2018-11-03T08:54:24.340Z,11.05
2018-11-03T08:56:54.158Z,8.85
2018-11-03T08:59:24.118Z,8.78
2018-11-03T09:01:54.382Z,10.50
2018-11-03T09:04:24.147Z,10.90
2018-11-03T09:06:53.936Z,9.88
2018-11-03T09:09:23.909Z,11.00
2018-11-03T09:11:53.707Z,10.10
2018-11-03T09:14:23.704Z,11.22
2018-11-03T09:16:53.693Z,10.50
2018-11-03T09:19:23.451Z,9.70
2018-11-03T09:21:53.310Z,10.72
2018-11-03T09:24:23.314Z,11.38
2018-11-03T09:26:53.135Z,9.88
2018-11-03T09:29:22.914Z,8.75
2018-11-03T09:31:52.682Z,9.45
2018-11-03T09:34:22.676Z,9.98
2018-11-03T09:36:52.655Z,9.73
2018-11-03T09:39:22.626Z,8.80
2018-11-03T09:41:52.416Z,9.35
2018-11-03T09:44:22.167Z,9.28
2018-11-03T09:46:51.979Z,9.73
2018-11-03T09:49:21.727Z,8.75
2018-11-03T09:51:51.479Z,10.18
2018-11-03T09:54:21.229Z,10.65
2018-11-03T09:56:50.984Z,9.70
2018-11-03T09:59:20.698Z,9.53
2018-11-03T10:01:50.439Z,9.43
2018-11-03T10:04:20.175Z,10.75
2018-11-03T10:06:50.013Z,9.88
2018-11-03T10:09:19.882Z,11.10
2018-11-03T10:11:49.608Z,10.23
2018-11-03T10:14:19.648Z,9.80
2018-11-03T10:16:49.405Z,10.53
2018-11-03T10:19:19.099Z,10.08
2018-11-03T10:21:48.839Z,11.00
2018-11-03T10:24:18.548Z,10.43
2018-11-03T10:26:48.646Z,11.18
2018-11-03T10:29:18.346Z,9.00
2018-11-03T10:31:48.158Z,9.85
2018-11-03T10:34:17.867Z,8.08
2018-11-03T10:36:47.620Z,9.73
2018-11-03T10:39:17.323Z,8.13
2018-11-03T10:41:50.575Z,9.53
2018-11-03T10:44:20.787Z,9.25
2018-11-03T10:46:50.486Z,8.40
2018-11-03T10:49:20.184Z,9.15
2018-11-03T10:51:50.122Z,8.75
2018-11-03T10:54:19.811Z,8.55
2018-11-03T10:56:49.798Z,8.70
2018-11-03T10:59:19.506Z,9.28
2018-11-03T11:01:54.792Z,8.48
2018-11-03T11:04:29.751Z,9.38
2018-11-03T11:07:04.724Z,7.60
2018-11-03T11:09:40.012Z,8.58
2018-11-03T11:12:15.139Z,8.68
2018-11-03T11:14:44.979Z,10.38
2018-11-03T11:17:14.711Z,9.13
2018-11-03T11:19:44.449Z,9.73
2018-11-03T11:22:14.381Z,8.90
2018-11-03T11:24:44.140Z,9.90
2018-11-03T11:27:14.000Z,9.10
2018-11-03T11:29:43.692Z,9.58
2018-11-03T11:32:13.395Z,9.38
2018-11-03T11:34:43.083Z,9.83
2018-11-03T11:37:12.812Z,8.85
2018-11-03T11:39:43.033Z,10.63
2018-11-03T11:42:12.782Z,9.70
2018-11-03T11:44:42.528Z,9.78
2018-11-03T11:47:12.244Z,10.53
2018-11-03T11:49:41.977Z,10.23
2018-11-03T11:52:11.688Z,9.08
2018-11-03T11:54:41.517Z,10.68
2018-11-03T11:57:11.424Z,10.32
2018-11-03T11:59:41.167Z,9.98
2018-11-03T12:02:10.937Z,9.95
2018-11-03T12:04:43.596Z,10.20
2018-11-03T12:07:13.439Z,10.10
2018-11-03T12:09:43.172Z,9.83
2018-11-03T12:12:12.956Z,10.65
2018-11-03T12:14:42.881Z,9.28
2018-11-03T12:17:12.640Z,10.60
2018-11-03T12:19:42.375Z,9.55
2018-11-03T12:22:12.089Z,10.32
2018-11-03T12:24:41.853Z,9.80
2018-11-03T12:27:11.628Z,9.45
2018-11-03T12:29:41.367Z,10.53
2018-11-03T12:32:11.042Z,9.85
2018-11-03T12:34:40.757Z,10.93
2018-11-03T12:37:10.468Z,11.48
2018-11-03T12:39:40.213Z,9.98
2018-11-03T12:42:10.088Z,9.93
2018-11-03T12:44:39.798Z,9.90
2018-11-03T12:47:09.855Z,10.15
2018-11-03T12:49:39.784Z,10.90
2018-11-03T12:52:09.503Z,12.98
2018-11-03T12:54:39.222Z,9.68
2018-11-03T12:57:09.372Z,9.75
2018-11-03T12:59:39.087Z,10.23
2018-11-03T13:02:08.756Z,9.60
2018-11-03T13:04:38.676Z,9.98
2018-11-03T13:07:08.358Z,9.65
2018-11-03T13:09:38.199Z,11.12
2018-11-03T13:12:08.075Z,10.25
2018-11-03T13:14:37.965Z,10.68
2018-11-03T13:17:07.632Z,9.65
2018-11-03T13:19:37.333Z,9.48
2018-11-03T13:22:07.348Z,9.58
2018-11-03T13:24:37.072Z,10.35
2018-11-03T13:27:06.812Z,10.48
2018-11-03T13:29:36.526Z,10.38
2018-11-03T13:32:06.567Z,9.85
2018-11-03T13:34:36.294Z,10.63
2018-11-03T13:37:06.167Z,10.80
2018-11-03T13:39:35.878Z,10.18
2018-11-03T13:42:05.979Z,9.88
2018-11-03T13:44:35.695Z,11.05
2018-11-03T13:47:06.020Z,10.88
2018-11-03T13:49:36.129Z,11.30
2018-11-03T13:52:06.210Z,10.78
2018-11-03T13:54:35.923Z,11.95
2018-11-03T13:57:05.727Z,10.90
2018-11-03T13:59:35.606Z,10.80
2018-11-03T14:02:06.127Z,10.95
2018-11-03T14:04:35.838Z,11.22
2018-11-03T14:07:05.687Z,12.00
2018-11-03T14:09:35.424Z,11.30
2018-11-03T14:12:05.931Z,11.55
2018-11-03T14:14:35.841Z,11.65
2018-11-03T14:17:05.622Z,11.95
2018-11-03T14:19:35.531Z,11.57
2018-11-03T14:22:05.483Z,11.80
2018-11-03T14:24:35.203Z,12.78
2018-11-03T14:27:05.283Z,12.43
2018-11-03T14:29:35.001Z,12.07
2018-11-03T14:32:05.012Z,12.82
2018-11-03T14:34:34.718Z,12.30
2018-11-03T14:37:04.439Z,13.18
2018-11-03T14:39:34.174Z,14.47
2018-11-03T14:42:03.889Z,12.85
2018-11-03T14:44:33.622Z,14.55
2018-11-03T14:47:03.575Z,12.25
2018-11-03T14:49:33.295Z,12.35
2018-11-03T14:52:03.039Z,12.10
2018-11-03T14:54:32.767Z,11.83
2018-11-03T14:57:02.503Z,13.30
2018-11-03T14:59:32.207Z,12.65
2018-11-03T15:02:01.982Z,11.33
2018-11-03T15:04:31.684Z,11.90
2018-11-03T15:07:01.476Z,12.45
2018-11-03T15:09:31.276Z,11.43
2018-11-03T15:12:01.135Z,12.13
2018-11-03T15:14:30.912Z,11.53
2018-11-03T15:17:00.711Z,11.70
2018-11-03T15:19:30.499Z,12.05
2018-11-03T15:22:00.305Z,12.20
2018-11-03T15:24:30.080Z,10.40
2018-11-03T15:26:59.891Z,12.70
2018-11-03T15:29:29.646Z,11.25
2018-11-03T15:31:59.432Z,12.50
2018-11-03T15:34:29.310Z,11.65
2018-11-03T15:36:59.314Z,12.35
2018-11-03T15:39:29.118Z,11.68
2018-11-03T15:41:58.908Z,13.25
2018-11-03T15:44:28.882Z,11.70
2018-11-03T15:46:59.074Z,11.83
2018-11-03T15:49:28.891Z,11.57
2018-11-03T15:52:08.722Z,10.53
2018-11-03T15:54:38.459Z,10.70
2018-11-03T15:57:08.260Z,11.20
2018-11-03T15:59:38.028Z,11.15
2018-11-03T16:02:07.871Z,12.03
2018-11-03T16:04:37.652Z,11.33
2018-11-03T16:07:07.469Z,11.40
2018-11-03T16:09:37.300Z,11.97
2018-11-03T16:12:07.359Z,10.88
2018-11-03T16:14:37.414Z,12.05
2018-11-03T16:17:07.223Z,11.80
2018-11-03T16:19:37.042Z,11.00
2018-11-03T16:22:07.087Z,12.10
2018-11-03T16:24:36.855Z,10.98
2018-11-03T16:27:07.439Z,12.28
2018-11-03T16:29:37.207Z,14.00
2018-11-03T16:32:07.102Z,13.68
2018-11-03T16:34:36.992Z,11.05
2018-11-03T16:37:06.795Z,12.20
2018-11-03T16:39:36.572Z,12.28
2018-11-03T16:42:06.726Z,14.40
2018-11-03T16:44:36.531Z,16.77
2018-11-03T16:47:06.519Z,13.30
2018-11-03T16:49:36.312Z,18.50
2018-11-03T16:52:06.470Z,15.23
2018-11-03T16:54:36.245Z,14.53
2018-11-03T16:57:06.042Z,14.60
2018-11-03T16:59:35.819Z,16.40
2018-11-03T17:02:06.072Z,14.60
2018-11-03T17:04:35.844Z,11.70
2018-11-03T17:07:05.774Z,14.38
2018-11-03T17:09:35.570Z,14.40
2018-11-03T17:12:05.513Z,12.53
2018-11-03T17:14:35.287Z,14.98
2018-11-03T17:17:05.475Z,16.15
2018-11-03T17:19:35.249Z,17.77
2018-11-03T17:22:05.421Z,13.22
2018-11-03T17:24:35.216Z,13.62
2018-11-03T17:27:05.027Z,13.40
2018-11-03T17:29:34.829Z,11.95
2018-11-03T17:32:05.212Z,12.98
2018-11-03T17:34:35.007Z,14.85
2018-11-03T17:37:05.351Z,13.53
2018-11-03T17:39:35.136Z,12.68
2018-11-03T17:42:05.358Z,13.88
2018-11-03T17:44:35.596Z,14.90
2018-11-03T17:47:05.776Z,13.48
2018-11-03T17:49:35.647Z,12.45
2018-11-03T17:52:05.432Z,12.35
2018-11-03T17:54:35.279Z,13.65
2018-11-03T17:57:05.324Z,13.28
2018-11-03T17:59:35.106Z,12.85
2018-11-03T18:02:05.397Z,14.18
2018-11-03T18:04:35.191Z,14.53
2018-11-03T18:07:05.052Z,14.05
2018-11-03T18:09:34.815Z,13.95
2018-11-03T18:12:04.938Z,13.65
2018-11-03T18:14:34.653Z,13.45
2018-11-03T18:17:04.436Z,14.35
2018-11-03T18:19:34.195Z,14.93
2018-11-03T18:22:04.138Z,17.37
2018-11-03T18:24:34.072Z,16.15
2018-11-03T18:27:04.184Z,14.98
2018-11-03T18:29:33.935Z,15.13
2018-11-03T18:32:03.649Z,14.18
2018-11-03T18:34:33.450Z,14.80
2018-11-03T18:37:03.369Z,13.45
2018-11-03T18:39:33.301Z,10.75
2018-11-03T18:42:03.037Z,12.00
2018-11-03T18:44:32.761Z,13.05
2018-11-03T18:47:02.504Z,13.83
2018-11-03T18:49:32.311Z,14.80
2018-11-03T18:52:02.055Z,12.10
2018-11-03T18:54:31.801Z,15.90
2018-11-03T18:57:01.540Z,15.68
2018-11-03T18:59:31.574Z,16.42
2018-11-03T19:02:01.275Z,14.53
2018-11-03T19:04:31.002Z,15.40
2018-11-03T19:07:00.772Z,15.05
2018-11-03T19:09:30.687Z,16.23
2018-11-03T19:12:00.604Z,13.15
2018-11-03T19:14:30.412Z,17.35
2018-11-03T19:17:00.171Z,19.23
2018-11-03T19:19:30.161Z,18.87
2018-11-03T19:21:59.947Z,14.00
2018-11-03T19:24:29.723Z,15.03
2018-11-03T19:26:59.600Z,16.60
2018-11-03T19:29:29.448Z,14.68
2018-11-03T19:31:59.449Z,13.95
2018-11-03T19:34:29.395Z,12.63
2018-11-03T19:36:59.204Z,15.10
2018-11-03T19:39:28.994Z,16.45
2018-11-03T19:41:58.771Z,15.20
2018-11-03T19:44:28.561Z,14.70
2018-11-03T19:46:58.371Z,15.98
2018-11-03T19:49:28.182Z,22.25
2018-11-03T19:51:57.960Z,17.73
2018-11-03T19:54:27.768Z,18.98
2018-11-03T19:56:57.539Z,15.95
2018-11-03T19:59:27.331Z,16.05
2018-11-03T20:01:57.090Z,15.10
2018-11-03T20:04:27.260Z,16.85
2018-11-03T20:06:57.378Z,16.02
2018-11-03T20:09:27.172Z,15.80
2018-11-03T20:11:56.958Z,17.60
2018-11-03T20:14:26.763Z,18.15
2018-11-03T20:16:56.524Z,13.98
2018-11-03T20:19:26.326Z,16.82
2018-11-03T20:21:56.118Z,16.50
2018-11-03T20:24:25.930Z,17.35
2018-11-03T20:26:55.705Z,13.60
2018-11-03T20:29:25.573Z,16.67
2018-11-03T20:31:55.441Z,15.10
2018-11-03T20:34:25.372Z,16.45
2018-11-03T20:36:55.283Z,15.50
2018-11-03T20:39:25.163Z,16.65
2018-11-03T20:41:55.234Z,16.30
2018-11-03T20:44:25.204Z,19.73
2018-11-03T20:46:54.995Z,16.00
2018-11-03T20:49:24.830Z,17.02
2018-11-03T20:51:54.593Z,22.58
2018-11-03T20:54:24.398Z,18.82
2018-11-03T20:56:54.266Z,17.85
2018-11-03T20:59:24.300Z,15.90
2018-11-03T21:01:54.219Z,18.75
2018-11-03T21:04:24.758Z,16.80
2018-11-03T21:06:54.967Z,14.93
2018-11-03T21:09:24.748Z,19.87
2018-11-03T21:11:54.559Z,19.62
2018-11-03T21:14:25.283Z,23.38
2018-11-03T21:16:55.121Z,22.48
2018-11-03T21:19:24.900Z,24.92
2018-11-03T21:21:54.687Z,27.58
2018-11-03T21:24:24.454Z,25.90
2018-11-03T21:26:54.306Z,25.05
2018-11-03T21:29:24.081Z,29.07
2018-11-03T21:31:53.939Z,27.70
2018-11-03T21:34:23.854Z,30.57
2018-11-03T21:36:54.015Z,33.02
2018-11-03T21:39:23.779Z,30.75
2018-11-03T21:41:53.571Z,31.30
2018-11-03T21:44:23.340Z,32.03
2018-11-03T21:46:53.259Z,27.77
2018-11-03T21:49:23.151Z,33.42
2018-11-03T21:51:52.991Z,30.85
2018-11-03T21:54:22.759Z,30.02
2018-11-03T21:56:52.594Z,31.12
2018-11-03T21:59:22.407Z,29.07
2018-11-03T22:01:52.196Z,28.80
2018-11-03T22:04:21.995Z,28.67
2018-11-03T22:06:51.808Z,30.70
2018-11-03T22:09:21.588Z,29.18
2018-11-03T22:11:51.435Z,29.42
2018-11-03T22:14:21.211Z,27.80
2018-11-03T22:16:51.027Z,29.30
2018-11-03T22:19:20.839Z,32.08
2018-11-03T22:21:50.735Z,32.17
2018-11-03T22:24:20.648Z,32.83
2018-11-03T22:26:50.465Z,34.50
2018-11-03T22:29:20.225Z,39.75
2018-11-03T22:31:50.020Z,38.10
2018-11-03T22:34:19.807Z,35.55
2018-11-03T22:36:49.672Z,35.20
2018-11-03T22:39:19.462Z,37.28
2018-11-03T22:41:49.332Z,34.58
2018-11-03T22:44:19.132Z,38.50
2018-11-03T22:46:48.913Z,36.48
2018-11-03T22:49:18.711Z,34.63
2018-11-03T22:51:48.560Z,42.58
2018-11-03T22:54:18.480Z,36.70
2018-11-03T22:56:48.281Z,32.65
2018-11-03T22:59:18.197Z,30.50
2018-11-03T23:01:48.148Z,31.07
2018-11-03T23:04:17.949Z,34.03
2018-11-03T23:06:47.759Z,30.48
2018-11-03T23:09:17.539Z,30.20
2018-11-03T23:11:47.499Z,28.85
2018-11-03T23:14:17.503Z,32.88
2018-11-03T23:16:47.299Z,28.90
2018-11-03T23:19:17.377Z,26.87
2018-11-03T23:21:47.397Z,30.50
2018-11-03T23:24:17.202Z,29.00
2018-11-03T23:26:46.993Z,27.67
2018-11-03T23:29:16.830Z,23.27
2018-11-03T23:31:46.810Z,23.45
2018-11-03T23:34:16.596Z,18.73
2018-11-03T23:36:46.439Z,18.40
2018-11-03T23:39:16.248Z,21.27
2018-11-03T23:41:46.048Z,21.17
2018-11-03T23:44:16.142Z,23.50
2018-11-03T23:46:45.926Z,23.30
2018-11-03T23:49:15.708Z,20.68
2018-11-03T23:51:45.516Z,23.40
2018-11-03T23:54:15.264Z,23.32
2018-11-03T23:56:45.071Z,22.87
2018-11-03T23:59:14.930Z,20.27
